Jenny Lake, Wyoming
Current Conditions -  °F | °C
As of 4:02 AM on Sunday 23 Nov 2014 (Local Time) from KDIJ Reporting Station
Broken Clouds Broken Clouds  
Wind Chill: 21°   Ceiling: 2500
Heat Index: 21°   Visibility: 10mi
Dew Point: 19°   Wind: 3mph
Humidity: 93%   Direction: 250°WSW
Pressure: 29.9"   Gusts: NA
Location:  43.8705°N, 110.836°W
Report Text: KDIJ 231102Z AUTO 25003KT 10SM FEW003 SCT012 BKN025 M06/M07 A2990 RMK AO2
Loading
Personal Weather Stations






























Interactive Weather Map New forecast layout! Learn more

10-Day Weather Forecast

Advertisements
Track Severe Weather on mobile